createdAt,value
2022-08-24T00:02:05.147Z,54.08
2022-08-24T00:04:32.432Z,53.88
2022-08-24T00:07:00.007Z,53.70
2022-08-24T00:09:26.639Z,54.06
2022-08-24T00:11:53.196Z,54.05
2022-08-24T00:14:19.725Z,54.14
2022-08-24T00:16:46.844Z,54.23
2022-08-24T00:19:13.472Z,54.45
2022-08-24T00:21:39.997Z,54.36
2022-08-24T00:24:06.575Z,54.39
2022-08-24T00:26:35.152Z,54.72
2022-08-24T00:29:06.831Z,55.21
2022-08-24T00:31:34.310Z,55.03
2022-08-24T00:34:01.063Z,55.30
2022-08-24T00:36:27.701Z,55.27
2022-08-24T00:38:54.282Z,55.95
2022-08-24T00:41:20.810Z,55.99
2022-08-24T00:43:55.518Z,55.82
2022-08-24T00:46:30.942Z,56.08
2022-08-24T00:49:23.962Z,55.58
2022-08-24T00:52:10.276Z,55.93
2022-08-24T00:54:45.950Z,56.45
2022-08-24T00:57:17.212Z,56.46
2022-08-24T00:59:48.023Z,56.95
2022-08-24T01:02:19.691Z,56.86
2022-08-24T01:04:54.647Z,57.46
2022-08-24T01:07:24.620Z,58.03
2022-08-24T01:09:56.542Z,57.57
2022-08-24T01:12:25.280Z,57.88
2022-08-24T01:14:52.098Z,58.15
2022-08-24T01:17:39.206Z,58.58
2022-08-24T01:20:08.609Z,58.43
2022-08-24T01:22:47.612Z,58.38
2022-08-24T01:25:14.106Z,59.26
2022-08-24T01:27:41.938Z,58.94
2022-08-24T01:30:13.559Z,59.23
2022-08-24T01:32:41.559Z,59.31
2022-08-24T01:35:09.195Z,59.74
2022-08-24T01:37:36.153Z,60.16
2022-08-24T01:40:07.304Z,60.31
2022-08-24T01:42:34.938Z,57.73
2022-08-24T01:45:02.814Z,59.96
2022-08-24T01:47:29.241Z,60.09
2022-08-24T01:49:55.713Z,60.27
2022-08-24T01:52:25.987Z,60.44
2022-08-24T01:54:53.101Z,61.05
2022-08-24T01:57:23.478Z,60.81
2022-08-24T01:59:49.946Z,60.68
2022-08-24T02:02:24.424Z,61.01
2022-08-24T02:04:50.892Z,61.03
2022-08-24T02:07:18.389Z,60.90
2022-08-24T02:09:45.049Z,61.47
2022-08-24T02:12:12.086Z,61.32
2022-08-24T02:14:38.556Z,61.91
2022-08-24T02:17:07.378Z,61.58
2022-08-24T02:19:34.367Z,62.23
2022-08-24T02:22:01.332Z,62.06
2022-08-24T02:24:29.116Z,62.10
2022-08-24T02:26:56.380Z,62.31
2022-08-24T02:29:22.988Z,62.19
2022-08-24T02:31:49.606Z,62.57
2022-08-24T02:34:16.587Z,62.42
2022-08-24T02:36:43.256Z,62.76
2022-08-24T02:39:10.148Z,63.26
2022-08-24T02:41:37.646Z,63.24
2022-08-24T02:44:05.180Z,63.25
2022-08-24T02:46:31.707Z,63.97
2022-08-24T02:49:10.153Z,64.25
2022-08-24T02:51:43.881Z,61.32
2022-08-24T02:54:13.287Z,63.72
2022-08-24T02:56:39.756Z,64.14
2022-08-24T02:59:06.438Z,64.19
2022-08-24T03:01:32.948Z,64.50
2022-08-24T03:03:59.526Z,64.67
2022-08-24T03:06:26.023Z,65.06
2022-08-24T03:08:54.709Z,64.77
2022-08-24T03:11:27.930Z,64.96
2022-08-24T03:13:56.078Z,65.00
2022-08-24T03:16:22.919Z,65.08
2022-08-24T03:18:49.617Z,65.03
2022-08-24T03:21:16.260Z,64.83
2022-08-24T03:23:43.034Z,65.08
2022-08-24T03:26:10.391Z,65.50
2022-08-24T03:28:36.890Z,65.34
2022-08-24T03:31:04.047Z,65.06
2022-08-24T03:33:31.117Z,65.34
2022-08-24T03:35:57.710Z,65.13
2022-08-24T03:38:24.359Z,65.08
2022-08-24T03:40:50.818Z,65.51
2022-08-24T03:43:36.703Z,65.66
2022-08-24T03:46:07.414Z,66.03
2022-08-24T03:48:34.489Z,65.97
2022-08-24T03:51:01.452Z,66.12
2022-08-24T03:53:27.902Z,66.12
2022-08-24T03:55:54.361Z,66.28
2022-08-24T03:58:20.827Z,66.33
2022-08-24T04:00:47.346Z,66.57
2022-08-24T04:03:14.202Z,66.90
2022-08-24T04:05:42.325Z,67.01
2022-08-24T04:08:09.637Z,67.31
2022-08-24T04:10:36.539Z,67.87
2022-08-24T04:13:03.109Z,67.70
2022-08-24T04:15:31.690Z,68.07
2022-08-24T04:17:58.566Z,68.11
2022-08-24T04:20:25.808Z,68.21
2022-08-24T04:22:53.580Z,68.82
2022-08-24T04:25:24.692Z,68.44
2022-08-24T04:27:51.905Z,68.92
2022-08-24T04:30:18.623Z,69.20
2022-08-24T04:32:45.313Z,69.56
2022-08-24T04:35:12.609Z,69.90
2022-08-24T04:37:39.023Z,70.11
2022-08-24T04:40:08.048Z,70.31
2022-08-24T04:42:34.955Z,70.48
2022-08-24T04:45:01.469Z,70.75
2022-08-24T04:47:28.007Z,70.89
2022-08-24T04:49:54.474Z,71.05
2022-08-24T04:52:21.046Z,71.40
2022-08-24T04:54:47.571Z,71.33
2022-08-24T04:57:17.904Z,71.33
2022-08-24T04:59:44.946Z,71.28
2022-08-24T05:02:11.486Z,70.96
2022-08-24T05:04:38.255Z,71.55
2022-08-24T05:07:05.607Z,71.90
2022-08-24T05:09:32.286Z,71.56
2022-08-24T05:11:58.773Z,71.87
2022-08-24T05:14:28.825Z,72.01
2022-08-24T05:16:55.828Z,72.14
2022-08-24T05:19:23.770Z,72.20
2022-08-24T05:21:50.797Z,72.19
2022-08-24T05:24:18.344Z,72.24
2022-08-24T05:26:45.426Z,72.14
2022-08-24T05:29:11.908Z,72.11
2022-08-24T05:31:38.502Z,71.90
2022-08-24T05:34:05.648Z,72.12
2022-08-24T05:36:38.068Z,72.29
2022-08-24T05:39:11.374Z,72.32
2022-08-24T05:41:44.234Z,72.32
2022-08-24T05:44:12.204Z,71.94
2022-08-24T05:46:38.623Z,71.85
2022-08-24T05:49:05.633Z,71.26
2022-08-24T05:51:32.277Z,71.43
2022-08-24T05:53:59.293Z,70.91
2022-08-24T05:56:31.295Z,70.04
2022-08-24T05:58:58.429Z,70.31
2022-08-24T06:01:27.067Z,70.12
2022-08-24T06:03:55.005Z,70.22
2022-08-24T06:06:23.079Z,70.38
2022-08-24T06:08:53.043Z,69.74
2022-08-24T06:11:24.731Z,69.69
2022-08-24T06:14:07.278Z,69.76
2022-08-24T06:16:36.510Z,69.82
2022-08-24T06:19:04.380Z,69.46
2022-08-24T06:21:31.725Z,69.95
2022-08-24T06:23:59.395Z,69.64
2022-08-24T06:26:50.208Z,69.37
2022-08-24T06:29:17.971Z,69.37
2022-08-24T06:31:46.554Z,69.36
2022-08-24T06:34:15.162Z,69.03
2022-08-24T06:36:42.000Z,68.99
2022-08-24T06:39:10.229Z,69.26
2022-08-24T06:41:40.508Z,68.76
2022-08-24T06:44:07.703Z,67.25
2022-08-24T06:46:36.398Z,68.06
2022-08-24T06:49:03.400Z,67.69
2022-08-24T06:51:30.193Z,67.70
2022-08-24T06:53:56.691Z,67.41
2022-08-24T06:56:23.230Z,67.76
2022-08-24T06:58:50.200Z,66.46
2022-08-24T07:01:19.562Z,66.27
2022-08-24T07:03:46.575Z,65.79
2022-08-24T07:06:14.287Z,65.37
2022-08-24T07:08:42.465Z,65.46
2022-08-24T07:11:10.097Z,64.69
2022-08-24T07:13:36.627Z,63.87
2022-08-24T07:16:04.719Z,64.32
2022-08-24T07:18:31.310Z,63.82
2022-08-24T07:21:00.399Z,63.42
2022-08-24T07:23:41.799Z,63.68
2022-08-24T07:26:21.655Z,62.82
2022-08-24T07:28:51.478Z,63.01
2022-08-24T07:31:17.986Z,62.06
2022-08-24T07:33:45.078Z,62.40
2022-08-24T07:36:11.534Z,62.01
2022-08-24T07:38:46.576Z,61.86
2022-08-24T07:41:38.206Z,62.04
2022-08-24T07:44:00.838Z,61.48
2022-08-24T07:46:27.285Z,60.79
2022-08-24T07:49:04.975Z,60.12
2022-08-24T07:51:44.813Z,60.14
2022-08-24T07:54:13.489Z,59.57
2022-08-24T07:56:41.840Z,58.76
2022-08-24T07:59:12.444Z,59.38
2022-08-24T08:01:40.596Z,59.10
2022-08-24T08:04:07.812Z,58.53
2022-08-24T08:06:34.525Z,58.25
2022-08-24T08:09:02.562Z,57.66
2022-08-24T08:11:28.978Z,57.36
2022-08-24T08:13:55.438Z,57.51
2022-08-24T08:16:21.973Z,58.07
2022-08-24T08:18:52.420Z,57.29
2022-08-24T08:21:51.047Z,57.71
2022-08-24T08:24:20.455Z,57.00
2022-08-24T08:26:52.799Z,57.50
2022-08-24T08:29:20.230Z,55.69
2022-08-24T08:31:46.818Z,54.89
2022-08-24T08:34:13.665Z,54.50
2022-08-24T08:36:41.041Z,54.22
2022-08-24T08:39:09.818Z,53.98
2022-08-24T08:41:46.816Z,54.74
2022-08-24T08:44:21.016Z,52.90
2022-08-24T08:46:50.297Z,52.54
2022-08-24T08:49:38.342Z,53.19
2022-08-24T08:52:31.032Z,51.64
2022-08-24T08:55:03.702Z,51.90
2022-08-24T08:58:00.379Z,52.59
2022-08-24T09:00:53.912Z,53.63
2022-08-24T09:04:08.349Z,52.70
2022-08-24T09:07:00.956Z,51.51
2022-08-24T09:09:48.493Z,52.00
2022-08-24T09:12:31.380Z,51.40
2022-08-24T09:15:06.411Z,49.76
2022-08-24T09:17:32.806Z,48.82
2022-08-24T09:20:24.237Z,48.62
2022-08-24T09:23:02.022Z,48.67
2022-08-24T09:25:47.997Z,47.74
2022-08-24T09:28:32.800Z,47.35
2022-08-24T09:31:26.217Z,47.12
2022-08-24T09:34:06.490Z,45.92
2022-08-24T09:36:59.390Z,44.03
2022-08-24T09:39:31.909Z,43.50
2022-08-24T09:42:01.060Z,42.11
2022-08-24T09:44:30.566Z,40.98
2022-08-24T09:47:15.622Z,41.45
2022-08-24T09:50:06.719Z,40.52
2022-08-24T09:52:57.910Z,40.71
2022-08-24T09:55:58.934Z,39.89
2022-08-24T09:58:34.327Z,38.34
2022-08-24T10:01:41.742Z,37.30
2022-08-24T10:04:36.651Z,36.06
2022-08-24T10:07:12.364Z,35.92
2022-08-24T10:10:23.360Z,36.15
2022-08-24T10:13:04.865Z,35.61
2022-08-24T10:15:46.966Z,34.69
2022-08-24T10:18:47.421Z,33.50
2022-08-24T10:21:26.818Z,34.70
2022-08-24T10:24:31.410Z,32.49
2022-08-24T10:27:09.382Z,33.35
2022-08-24T10:30:09.983Z,34.49
2022-08-24T10:33:09.025Z,33.60
2022-08-24T10:35:46.270Z,33.03
2022-08-24T10:38:53.465Z,34.22
2022-08-24T10:41:44.088Z,34.63
2022-08-24T10:44:31.965Z,32.77
2022-08-24T10:47:01.123Z,34.06
2022-08-24T10:49:48.561Z,32.48
2022-08-24T10:52:42.974Z,32.81
2022-08-24T10:55:22.423Z,32.99
2022-08-24T10:58:10.887Z,31.07
2022-08-24T11:00:37.676Z,31.76
2022-08-24T11:03:14.357Z,32.38
2022-08-24T11:05:50.148Z,31.53
2022-08-24T11:08:19.921Z,31.43
2022-08-24T11:11:02.766Z,30.76
2022-08-24T11:13:29.454Z,30.69
2022-08-24T11:15:59.262Z,29.52
2022-08-24T11:18:26.922Z,29.57
2022-08-24T11:20:55.381Z,29.73
2022-08-24T11:23:34.443Z,30.64
2022-08-24T11:26:13.320Z,30.37
2022-08-24T11:28:50.660Z,29.94
2022-08-24T11:31:27.609Z,29.15
2022-08-24T11:34:04.692Z,29.34
2022-08-24T11:36:36.211Z,30.00
2022-08-24T11:39:11.466Z,30.67
2022-08-24T11:41:47.402Z,29.55
2022-08-24T11:44:49.924Z,28.89
2022-08-24T11:47:30.364Z,28.23
2022-08-24T11:50:08.528Z,28.75
2022-08-24T11:53:11.141Z,28.72
2022-08-24T11:56:00.702Z,28.92
2022-08-24T11:58:45.898Z,28.56
2022-08-24T12:01:19.301Z,29.05
2022-08-24T12:04:03.791Z,28.85
2022-08-24T12:06:50.431Z,28.47
2022-08-24T12:09:37.123Z,28.16
2022-08-24T12:12:14.698Z,29.14
2022-08-24T12:14:56.528Z,28.14
2022-08-24T12:17:30.675Z,28.91
2022-08-24T12:20:09.424Z,28.94
2022-08-24T12:22:36.327Z,28.62
2022-08-24T12:25:24.876Z,28.19
2022-08-24T12:27:54.065Z,27.73
2022-08-24T12:30:20.659Z,28.48
2022-08-24T12:32:58.079Z,28.40
2022-08-24T12:35:29.822Z,29.23
2022-08-24T12:38:15.401Z,28.07
2022-08-24T12:41:14.559Z,29.35
2022-08-24T12:43:51.787Z,27.96
2022-08-24T12:46:22.795Z,27.91
2022-08-24T12:48:59.730Z,27.83
2022-08-24T12:51:34.730Z,27.71
2022-08-24T12:54:23.083Z,28.22
2022-08-24T12:57:29.806Z,27.20
2022-08-24T13:00:03.531Z,28.10
2022-08-24T13:02:39.575Z,27.47
2022-08-24T13:05:18.629Z,27.73
2022-08-24T13:07:48.809Z,28.22
2022-08-24T13:10:37.803Z,27.24
2022-08-24T13:13:04.141Z,27.12
2022-08-24T13:15:30.564Z,27.59
2022-08-24T13:18:03.327Z,27.01
2022-08-24T13:20:50.160Z,27.21
2022-08-24T13:23:24.944Z,26.24
2022-08-24T13:25:58.772Z,25.90
2022-08-24T13:28:25.414Z,26.78
2022-08-24T13:31:22.606Z,26.59
2022-08-24T13:33:55.277Z,25.97
2022-08-24T13:36:30.929Z,25.87
2022-08-24T13:39:06.210Z,25.29
2022-08-24T13:41:55.417Z,26.29
2022-08-24T13:44:43.740Z,26.32
2022-08-24T13:47:25.958Z,27.09
2022-08-24T13:50:14.905Z,27.42
2022-08-24T13:52:50.401Z,26.95
2022-08-24T13:55:35.101Z,27.01
2022-08-24T13:58:26.913Z,26.56
2022-08-24T14:01:01.462Z,26.64
2022-08-24T14:03:53.845Z,27.01
2022-08-24T14:06:32.133Z,26.70
2022-08-24T14:09:16.593Z,27.06
2022-08-24T14:12:15.334Z,26.97
2022-08-24T14:15:12.976Z,26.81
2022-08-24T14:18:01.048Z,26.02
2022-08-24T14:21:00.365Z,26.66
2022-08-24T14:23:47.112Z,26.32
2022-08-24T14:26:38.699Z,27.10
2022-08-24T14:29:20.075Z,26.22
2022-08-24T14:31:59.986Z,26.85
2022-08-24T14:34:53.447Z,26.86
2022-08-24T14:37:23.771Z,27.09
2022-08-24T14:40:17.151Z,26.65
2022-08-24T14:42:56.070Z,26.86
2022-08-24T14:45:52.546Z,26.60
2022-08-24T14:48:56.777Z,26.61
2022-08-24T14:51:29.277Z,26.64
2022-08-24T14:54:32.732Z,25.51
2022-08-24T14:57:16.062Z,25.18
2022-08-24T14:59:42.581Z,25.06
2022-08-24T15:02:31.893Z,26.50
2022-08-24T15:05:23.527Z,25.86
2022-08-24T15:08:09.000Z,25.99
2022-08-24T15:10:52.992Z,25.75
2022-08-24T15:13:40.540Z,25.92
2022-08-24T15:16:18.779Z,25.93
2022-08-24T15:19:02.793Z,25.80
2022-08-24T15:21:56.811Z,25.52
2022-08-24T15:24:39.797Z,25.62
2022-08-24T15:27:18.635Z,25.20
2022-08-24T15:29:54.982Z,24.53
2022-08-24T15:32:28.008Z,25.12
2022-08-24T15:34:58.335Z,24.04
2022-08-24T15:37:37.415Z,24.58
2022-08-24T15:40:16.654Z,24.91
2022-08-24T15:42:43.374Z,25.01
2022-08-24T15:45:10.729Z,25.06
2022-08-24T15:47:45.693Z,24.37
2022-08-24T15:50:39.666Z,24.71
2022-08-24T15:53:28.354Z,24.24
2022-08-24T15:55:55.638Z,23.36
2022-08-24T15:58:38.905Z,24.63
2022-08-24T16:01:30.041Z,24.07
2022-08-24T16:04:05.164Z,23.60
2022-08-24T16:06:31.525Z,24.67
2022-08-24T16:09:13.082Z,24.22
2022-08-24T16:11:51.339Z,25.33
2022-08-24T16:14:46.885Z,24.83
2022-08-24T16:17:27.663Z,24.70
2022-08-24T16:19:58.488Z,24.73
2022-08-24T16:22:32.961Z,24.52
2022-08-24T16:25:13.061Z,25.92
2022-08-24T16:27:58.950Z,24.66
2022-08-24T16:31:01.013Z,25.40
2022-08-24T16:33:39.915Z,24.85
2022-08-24T16:36:17.710Z,25.51
2022-08-24T16:38:49.657Z,25.12
2022-08-24T16:41:19.234Z,25.75
2022-08-24T16:43:46.435Z,24.93
2022-08-24T16:46:18.093Z,25.71
2022-08-24T16:48:44.629Z,26.52
2022-08-24T16:51:11.069Z,26.82
2022-08-24T16:53:37.597Z,26.66
2022-08-24T16:56:04.728Z,26.43
2022-08-24T16:58:34.092Z,26.83
2022-08-24T17:01:01.709Z,27.21
2022-08-24T17:03:28.714Z,27.75
2022-08-24T17:05:56.164Z,27.54
2022-08-24T17:08:23.114Z,26.85
2022-08-24T17:10:49.654Z,27.31
2022-08-24T17:13:33.049Z,27.89
2022-08-24T17:16:03.714Z,28.04
2022-08-24T17:18:30.383Z,28.69
2022-08-24T17:20:58.325Z,28.24
2022-08-24T17:23:24.909Z,28.80
2022-08-24T17:25:51.416Z,29.15
2022-08-24T17:28:20.456Z,29.77
2022-08-24T17:30:50.937Z,28.81
2022-08-24T17:33:18.766Z,29.87
2022-08-24T17:35:45.573Z,29.65
2022-08-24T17:38:12.153Z,29.01
2022-08-24T17:40:38.582Z,30.40
2022-08-24T17:43:05.518Z,30.31
2022-08-24T17:45:32.150Z,30.38
2022-08-24T17:47:58.666Z,30.14
2022-08-24T17:50:25.244Z,30.16
2022-08-24T17:52:59.080Z,31.19
2022-08-24T17:55:27.936Z,30.42
2022-08-24T17:57:54.635Z,31.11
2022-08-24T18:00:21.283Z,31.67
2022-08-24T18:02:47.715Z,31.53
2022-08-24T18:05:14.877Z,32.24
2022-08-24T18:07:53.555Z,32.55
2022-08-24T18:10:25.351Z,32.78
2022-08-24T18:12:53.108Z,33.30
2022-08-24T18:15:19.634Z,33.76
2022-08-24T18:17:51.487Z,34.41
2022-08-24T18:20:24.774Z,35.06
2022-08-24T18:23:03.217Z,35.23
2022-08-24T18:25:35.795Z,35.28
2022-08-24T18:28:02.665Z,36.60
2022-08-24T18:30:30.937Z,36.52
2022-08-24T18:33:01.656Z,37.26
2022-08-24T18:35:30.711Z,38.71
2022-08-24T18:37:57.298Z,40.59
2022-08-24T18:40:24.319Z,43.17
2022-08-24T18:42:51.072Z,44.82
2022-08-24T18:45:17.994Z,46.47
2022-08-24T18:47:44.507Z,47.04
2022-08-24T18:50:21.118Z,48.97
2022-08-24T18:52:47.799Z,49.16
2022-08-24T18:55:15.068Z,50.05
2022-08-24T18:57:41.563Z,51.34
2022-08-24T19:00:10.253Z,51.84
2022-08-24T19:02:36.986Z,52.50
2022-08-24T19:05:13.064Z,52.25
2022-08-24T19:07:44.402Z,53.72
2022-08-24T19:10:14.617Z,53.77
2022-08-24T19:12:51.509Z,54.23
2022-08-24T19:15:35.709Z,55.16
2022-08-24T19:18:05.967Z,54.97
2022-08-24T19:20:34.200Z,55.96
2022-08-24T19:23:08.431Z,55.59
2022-08-24T19:25:36.265Z,56.42
2022-08-24T19:28:04.198Z,56.67
2022-08-24T19:30:31.091Z,57.20
2022-08-24T19:32:58.453Z,57.48
2022-08-24T19:35:24.946Z,57.54
2022-08-24T19:37:51.590Z,57.72
2022-08-24T19:40:20.891Z,58.12
2022-08-24T19:42:50.951Z,58.64
2022-08-24T19:45:41.242Z,58.86
2022-08-24T19:48:08.206Z,59.22
2022-08-24T19:50:35.984Z,59.30
2022-08-24T19:53:04.032Z,59.83
2022-08-24T19:55:30.902Z,60.41
2022-08-24T19:58:18.689Z,59.83
2022-08-24T20:00:51.485Z,60.71
2022-08-24T20:03:18.754Z,61.04
2022-08-24T20:05:45.829Z,61.13
2022-08-24T20:08:12.995Z,61.66
2022-08-24T20:10:39.665Z,61.80
2022-08-24T20:13:06.459Z,62.37
2022-08-24T20:15:33.517Z,62.63
2022-08-24T20:18:00.338Z,62.99
2022-08-24T20:20:27.918Z,63.43
2022-08-24T20:22:54.980Z,63.70
2022-08-24T20:25:21.545Z,64.26
2022-08-24T20:27:48.989Z,64.32
2022-08-24T20:30:17.973Z,64.57
2022-08-24T20:32:44.438Z,65.00
2022-08-24T20:35:14.979Z,64.93
2022-08-24T20:37:42.216Z,65.33
2022-08-24T20:40:12.952Z,65.76
2022-08-24T20:42:41.467Z,65.88
2022-08-24T20:45:10.430Z,65.89
2022-08-24T20:47:50.198Z,65.78
2022-08-24T20:50:24.543Z,66.43
2022-08-24T20:52:52.987Z,66.91
2022-08-24T20:55:21.743Z,67.41
2022-08-24T20:57:51.692Z,67.60
2022-08-24T21:00:20.485Z,67.79
2022-08-24T21:02:47.334Z,68.16
2022-08-24T21:05:14.200Z,68.02
2022-08-24T21:07:47.578Z,68.44
2022-08-24T21:10:14.103Z,68.69
2022-08-24T21:12:40.583Z,68.67
2022-08-24T21:15:10.799Z,69.24
2022-08-24T21:17:37.303Z,69.65
2022-08-24T21:20:04.250Z,69.33
2022-08-24T21:22:30.716Z,70.09
2022-08-24T21:24:57.212Z,70.39
2022-08-24T21:27:24.229Z,70.11
2022-08-24T21:29:50.697Z,70.72
2022-08-24T21:32:35.860Z,70.97
2022-08-24T21:35:02.478Z,71.38
2022-08-24T21:37:29.654Z,71.35
2022-08-24T21:39:57.201Z,71.43
2022-08-24T21:42:23.748Z,71.56
2022-08-24T21:44:50.305Z,71.76
2022-08-24T21:47:17.454Z,72.58
2022-08-24T21:49:43.985Z,72.61
2022-08-24T21:52:10.414Z,73.11
2022-08-24T21:54:36.906Z,73.05
2022-08-24T21:57:05.861Z,73.68
2022-08-24T21:59:34.092Z,73.55
2022-08-24T22:02:01.582Z,73.14
2022-08-24T22:04:28.062Z,73.65
2022-08-24T22:06:54.552Z,74.21
2022-08-24T22:09:22.432Z,74.33
2022-08-24T22:11:50.027Z,74.07
2022-08-24T22:14:16.762Z,74.57
2022-08-24T22:16:44.764Z,74.40
2022-08-24T22:19:12.169Z,74.91
2022-08-24T22:21:45.897Z,75.53
2022-08-24T22:24:14.192Z,75.12
2022-08-24T22:26:41.505Z,75.30
2022-08-24T22:29:09.814Z,75.64
2022-08-24T22:31:39.746Z,75.57
2022-08-24T22:34:10.348Z,75.58
2022-08-24T22:36:37.668Z,75.19
2022-08-24T22:39:04.889Z,75.65
2022-08-24T22:41:32.008Z,76.28
2022-08-24T22:44:17.566Z,76.30
2022-08-24T22:46:44.413Z,76.12
2022-08-24T22:49:11.581Z,76.44
2022-08-24T22:51:38.359Z,76.81
2022-08-24T22:54:05.148Z,76.93
2022-08-24T22:56:43.979Z,76.75
2022-08-24T22:59:16.504Z,77.06
2022-08-24T23:01:45.411Z,77.19
2022-08-24T23:04:15.893Z,77.12
2022-08-24T23:06:42.786Z,77.49
2022-08-24T23:09:09.922Z,77.64
2022-08-24T23:11:37.286Z,77.83
2022-08-24T23:14:07.203Z,77.96
2022-08-24T23:16:36.454Z,77.59
2022-08-24T23:19:22.312Z,78.01
2022-08-24T23:21:49.160Z,77.58
2022-08-24T23:24:15.794Z,78.11
2022-08-24T23:26:43.182Z,78.25
2022-08-24T23:29:12.643Z,77.84
2022-08-24T23:31:40.220Z,77.79
2022-08-24T23:34:08.038Z,78.06
2022-08-24T23:36:35.397Z,78.11
2022-08-24T23:39:02.682Z,78.19
2022-08-24T23:41:32.643Z,78.41
2022-08-24T23:44:10.914Z,77.70
2022-08-24T23:46:38.370Z,78.00
2022-08-24T23:49:05.595Z,77.69
2022-08-24T23:51:32.123Z,77.72
2022-08-24T23:53:59.031Z,77.76
2022-08-24T23:56:32.075Z,78.19
2022-08-24T23:59:01.016Z,77.93
